createdAt,value
2018-05-07T00:00:01.798Z,96.27
2018-05-07T00:01:01.839Z,95.7
2018-05-07T00:02:01.775Z,95.84
2018-05-07T00:03:01.763Z,95.46
2018-05-07T00:04:01.503Z,95.51
2018-05-07T00:05:01.748Z,95.75
2018-05-07T00:06:02.134Z,95.98
2018-05-07T00:07:01.737Z,96.27
2018-05-07T00:08:01.729Z,96.27
2018-05-07T00:09:01.587Z,96.12
2018-05-07T00:10:01.829Z,96.75
2018-05-07T00:11:01.749Z,96.51
2018-05-07T00:12:01.694Z,96.56
2018-05-07T00:13:01.762Z,96.17
2018-05-07T00:14:01.678Z,96.17
2018-05-07T00:15:01.418Z,96.17
2018-05-07T00:16:01.689Z,96.08
2018-05-07T00:17:01.664Z,96.27
2018-05-07T00:18:01.652Z,95.98
2018-05-07T00:19:01.641Z,96.08
2018-05-07T00:20:01.636Z,96.08
2018-05-07T00:21:01.372Z,96.17
2018-05-07T00:22:01.619Z,96.17
2018-05-07T00:23:01.610Z,96.46
2018-05-07T00:24:01.600Z,96.36
2018-05-07T00:25:01.615Z,95.7
2018-05-07T00:26:01.611Z,95.51
2018-05-07T00:27:01.595Z,96.17
2018-05-07T00:28:01.571Z,95.89
2018-05-07T00:29:01.560Z,96.27
2018-05-07T00:30:01.553Z,95.84
2018-05-07T00:31:01.548Z,96.36
2018-05-07T00:32:01.284Z,96.56
2018-05-07T00:33:01.276Z,96.56
2018-05-07T00:34:01.533Z,96.27
2018-05-07T00:35:01.542Z,96.89
2018-05-07T00:36:01.515Z,96.41
2018-05-07T00:37:01.499Z,96.8
2018-05-07T00:38:01.490Z,96.8
2018-05-07T00:39:01.483Z,96.8
2018-05-07T00:40:01.475Z,96.84
2018-05-07T00:41:01.471Z,96.56
2018-05-07T00:42:01.459Z,97.36
2018-05-07T00:43:01.451Z,97.46
2018-05-07T00:44:01.443Z,97.41
2018-05-07T00:45:01.435Z,97.22
2018-05-07T00:46:01.430Z,97.36
2018-05-07T00:47:01.418Z,97.36
2018-05-07T00:48:01.410Z,97.17
2018-05-07T00:49:01.405Z,97.41
2018-05-07T00:50:01.395Z,97.32
2018-05-07T00:51:01.389Z,97.65
2018-05-07T00:52:01.384Z,97.36
2018-05-07T00:53:01.372Z,97.56
2018-05-07T00:54:01.363Z,97.17
2018-05-07T00:55:01.357Z,97.65
2018-05-07T00:56:01.353Z,97.36
2018-05-07T00:57:01.346Z,97.56
2018-05-07T00:58:01.336Z,97.17
2018-05-07T00:59:01.334Z,97.17
2018-05-07T01:00:01.316Z,97.84
2018-05-07T01:01:01.306Z,97.27
2018-05-07T01:02:01.300Z,97.36
2018-05-07T01:03:01.298Z,97.08
2018-05-07T01:04:01.038Z,97.08
2018-05-07T01:05:01.360Z,97.27
2018-05-07T01:06:01.269Z,97.56
2018-05-07T01:07:01.262Z,97.17
2018-05-07T01:08:01.252Z,97.17
2018-05-07T01:09:01.254Z,97.27
2018-05-07T01:10:01.241Z,97.17
2018-05-07T01:11:01.229Z,97.17
2018-05-07T01:12:01.219Z,97.46
2018-05-07T01:13:01.215Z,97.27
2018-05-07T01:14:01.203Z,97.27
2018-05-07T01:15:01.195Z,97.56
2018-05-07T01:16:01.188Z,96.8
2018-05-07T01:17:00.927Z,96.89
2018-05-07T01:18:01.172Z,96.7
2018-05-07T01:19:01.163Z,97.27
2018-05-07T01:20:00.908Z,97.65
2018-05-07T01:21:01.165Z,97.36
2018-05-07T01:22:01.151Z,97.56
2018-05-07T01:23:01.134Z,97.56
2018-05-07T01:24:01.136Z,97.17
2018-05-07T01:25:01.116Z,97.36
2018-05-07T01:26:01.119Z,97.36
2018-05-07T01:27:00.846Z,97.08
2018-05-07T01:28:01.173Z,97.56
2018-05-07T01:29:01.087Z,96.89
2018-05-07T01:30:01.078Z,97.56
2018-05-07T01:31:01.087Z,97.65
2018-05-07T01:32:01.059Z,97.56
2018-05-07T01:33:01.057Z,97.08
2018-05-07T01:34:01.045Z,97.56
2018-05-07T01:35:01.039Z,97.36
2018-05-07T01:36:01.108Z,97.17
2018-05-07T01:37:01.023Z,97.56
2018-05-07T01:38:00.756Z,97.17
2018-05-07T01:39:01.002Z,97.36
2018-05-07T01:40:01.110Z,97.36
2018-05-07T01:41:00.994Z,97.46
2018-05-07T01:42:00.724Z,97.56
2018-05-07T01:43:00.970Z,97.17
2018-05-07T01:44:00.709Z,97.17
2018-05-07T01:45:00.968Z,97.27
2018-05-07T01:46:00.948Z,97.27
2018-05-07T01:47:00.954Z,97.36
2018-05-07T01:48:00.676Z,97.17
2018-05-07T01:49:00.931Z,97.27
2018-05-07T01:50:00.660Z,97.56
2018-05-07T01:51:00.652Z,97.27
2018-05-07T01:52:00.900Z,97.17
2018-05-07T01:53:00.635Z,97.65
2018-05-07T01:54:00.627Z,97.17
2018-05-07T01:55:00.623Z,97.17
2018-05-07T01:56:00.613Z,97.46
2018-05-07T01:57:00.858Z,97.46
2018-05-07T01:58:00.852Z,97.6
2018-05-07T01:59:00.585Z,97.65
2018-05-07T02:00:00.862Z,97.13
2018-05-07T02:01:00.569Z,97.36
2018-05-07T02:02:00.562Z,97.46
2018-05-07T02:03:00.554Z,97.27
2018-05-07T02:04:00.796Z,97.13
2018-05-07T02:05:00.539Z,97.17
2018-05-07T02:06:00.781Z,97.36
2018-05-07T02:07:00.775Z,97.31
2018-05-07T02:08:00.513Z,97.22
2018-05-07T02:09:00.757Z,97.22
2018-05-07T02:10:00.494Z,97.22
2018-05-07T02:11:00.746Z,97.13
2018-05-07T02:12:00.731Z,97.31
2018-05-07T02:13:00.475Z,97.22
2018-05-07T02:14:00.722Z,97.41
2018-05-07T02:15:00.455Z,97.51
2018-05-07T02:16:00.704Z,97.13
2018-05-07T02:17:00.698Z,97.41
2018-05-07T02:18:00.681Z,97.51
2018-05-07T02:19:00.683Z,97.41
2018-05-07T02:20:00.673Z,97.41
2018-05-07T02:21:00.655Z,97.51
2018-05-07T02:22:00.652Z,97.51
2018-05-07T02:23:00.640Z,97.7
2018-05-07T02:24:00.633Z,97.41
2018-05-07T02:25:00.370Z,97.51
2018-05-07T02:26:00.614Z,97.22
2018-05-07T02:27:00.360Z,97.13
2018-05-07T02:28:00.345Z,97.22
2018-05-07T02:29:00.593Z,97.22
2018-05-07T02:30:00.344Z,97.22
2018-05-07T02:31:00.576Z,97.13
2018-05-07T02:32:00.565Z,97.31
2018-05-07T02:33:00.565Z,97.13
2018-05-07T02:34:00.295Z,97.03
2018-05-07T02:35:00.541Z,97.31
2018-05-07T02:36:00.537Z,97.7
2018-05-07T02:37:00.525Z,97.51
2018-05-07T02:38:00.521Z,97.6
2018-05-07T02:39:00.597Z,97.31
2018-05-07T02:40:00.502Z,97.51
2018-05-07T02:41:00.494Z,97.6
2018-05-07T02:42:00.484Z,97.13
2018-05-07T02:43:00.221Z,97.51
2018-05-07T02:44:00.463Z,97.6
2018-05-07T02:45:00.454Z,97.51
2018-05-07T02:46:00.447Z,97.51
2018-05-07T02:47:00.440Z,97.13
2018-05-07T02:48:00.177Z,97.6
2018-05-07T02:49:00.420Z,97.6
2018-05-07T02:50:00.411Z,97.41
2018-05-07T02:51:00.409Z,97.51
2018-05-07T02:52:00.395Z,97.41
2018-05-07T02:53:00.387Z,97.51
2018-05-07T02:54:00.377Z,97.22
2018-05-07T02:55:00.371Z,97.51
2018-05-07T02:56:00.362Z,97.22
2018-05-07T02:57:00.357Z,97.08
2018-05-07T02:58:00.344Z,97.22
2018-05-07T02:59:00.350Z,97.22
2018-05-07T03:00:00.342Z,97.17
2018-05-07T03:01:00.317Z,97.46
2018-05-07T03:02:00.312Z,97.46
2018-05-07T03:03:00.302Z,97.36
2018-05-07T03:04:00.292Z,98.03
2018-05-07T03:05:00.282Z,97.84
2018-05-07T03:06:00.280Z,98.03
2018-05-07T03:07:00.268Z,97.84
2018-05-07T03:08:00.258Z,98.13
2018-05-07T03:09:00.269Z,98.22
2018-05-07T03:10:00.243Z,97.93
2018-05-07T03:11:00.243Z,97.84
2018-05-07T03:12:00.226Z,98.03
2018-05-07T03:13:00.214Z,98.08
2018-05-07T03:14:00.205Z,98.22
2018-05-07T03:15:00.200Z,98.03
2018-05-07T03:16:00.189Z,97.74
2018-05-07T03:17:00.189Z,97.89
2018-05-07T03:18:00.170Z,98.03
2018-05-07T03:19:00.165Z,98.22
2018-05-07T03:20:00.152Z,97.99
2018-05-07T03:21:00.148Z,97.84
2018-05-07T03:22:00.193Z,97.93
2018-05-07T03:23:00.128Z,98.13
2018-05-07T03:24:00.126Z,98.36
2018-05-07T03:25:00.118Z,98.03
2018-05-07T03:26:00.267Z,98.08
2018-05-07T03:27:00.092Z,97.99
2018-05-07T03:28:00.084Z,97.89
2018-05-07T03:29:00.081Z,97.65
2018-05-07T03:30:00.076Z,97.89
2018-05-07T03:31:00.059Z,97.7
2018-05-07T03:32:00.050Z,97.99
2018-05-07T03:33:00.050Z,98.08
2018-05-07T03:33:59.780Z,97.99
2018-05-07T03:35:00.023Z,97.89
2018-05-07T03:36:00.015Z,97.99
2018-05-07T03:37:00.007Z,97.74
2018-05-07T03:37:59.997Z,97.99
2018-05-07T03:38:59.998Z,98.08
2018-05-07T03:39:59.980Z,98.08
2018-05-07T03:40:59.971Z,97.93
2018-05-07T03:41:59.712Z,97.89
2018-05-07T03:42:59.957Z,97.55
2018-05-07T03:43:59.952Z,98.18
2018-05-07T03:44:59.948Z,97.84
2018-05-07T03:45:59.929Z,97.93
2018-05-07T03:46:59.924Z,97.65
2018-05-07T03:47:59.915Z,97.93
2018-05-07T03:48:59.914Z,98.18
2018-05-07T03:49:59.899Z,98.36
2018-05-07T03:50:59.889Z,98.36
2018-05-07T03:51:59.879Z,98.27
2018-05-07T03:52:59.869Z,98.18
2018-05-07T03:53:59.865Z,98.08
2018-05-07T03:54:59.854Z,97.99
2018-05-07T03:55:59.846Z,97.99
2018-05-07T03:56:59.582Z,98.36
2018-05-07T03:57:59.827Z,97.7
2018-05-07T03:58:59.818Z,97.99
2018-05-07T03:59:59.809Z,97.89
2018-05-07T04:00:59.801Z,98.18
2018-05-07T04:01:59.799Z,97.89
2018-05-07T04:02:59.785Z,97.99
2018-05-07T04:03:59.523Z,98.03
2018-05-07T04:04:59.769Z,98.03
2018-05-07T04:05:59.772Z,97.56
2018-05-07T04:06:59.754Z,96.75
2018-05-07T04:07:59.744Z,96.27
2018-05-07T04:08:59.736Z,96.08
2018-05-07T04:09:59.730Z,95.84
2018-05-07T04:10:59.730Z,94.89
2018-05-07T04:11:59.718Z,94.79
2018-05-07T04:12:59.708Z,93.88
2018-05-07T04:13:59.702Z,93.41
2018-05-07T04:14:59.700Z,93.46
2018-05-07T04:15:59.693Z,92.79
2018-05-07T04:16:59.682Z,91.69
2018-05-07T04:17:59.678Z,91.11
2018-05-07T04:18:59.670Z,90.64
2018-05-07T04:19:59.671Z,89.82
2018-05-07T04:20:59.412Z,88.77
2018-05-07T04:21:59.402Z,88.48
2018-05-07T04:22:59.398Z,87.95
2018-05-07T04:23:59.649Z,87.86
2018-05-07T04:24:59.640Z,87.62
2018-05-07T04:25:59.635Z,87.27
2018-05-07T04:26:59.631Z,86.32
2018-05-07T04:27:59.375Z,84.64
2018-05-07T04:28:59.371Z,82.92
2018-05-07T04:29:59.619Z,82.96
2018-05-07T04:30:59.617Z,81.52
2018-05-07T04:31:59.626Z,80.99
2018-05-07T04:32:59.620Z,81.08
2018-05-07T04:33:59.606Z,81.18
2018-05-07T04:34:59.607Z,81.31
2018-05-07T04:35:59.606Z,79.49
2018-05-07T04:36:59.600Z,77.9
2018-05-07T04:37:59.600Z,79.14
2018-05-07T04:38:59.596Z,78.47
2018-05-07T04:39:59.600Z,77.46
2018-05-07T04:40:59.601Z,77.08
2018-05-07T04:41:59.591Z,76.54
2018-05-07T04:42:59.593Z,75.04
2018-05-07T04:43:59.590Z,73.11
2018-05-07T04:44:59.589Z,73.11
2018-05-07T04:45:59.588Z,72.19
2018-05-07T04:46:59.588Z,71.91
2018-05-07T04:47:59.587Z,70.4
2018-05-07T04:48:59.588Z,70.68
2018-05-07T04:49:59.596Z,68.9
2018-05-07T04:50:59.592Z,67.29
2018-05-07T04:51:59.589Z,65.3
2018-05-07T04:52:59.590Z,64.25
2018-05-07T04:53:59.593Z,63.6
2018-05-07T04:54:59.615Z,63.31
2018-05-07T04:55:59.593Z,63.24
2018-05-07T04:56:59.598Z,61.16
2018-05-07T04:57:59.346Z,60.13
2018-05-07T04:58:59.347Z,58.68
2018-05-07T04:59:59.607Z,57.93
2018-05-07T05:00:59.611Z,57.06
2018-05-07T05:01:59.609Z,56.58
2018-05-07T05:02:59.613Z,55.26
2018-05-07T05:03:59.619Z,54.13
2018-05-07T05:04:59.621Z,53.74
2018-05-07T05:05:59.621Z,52.51
2018-05-07T05:06:59.377Z,52.24
2018-05-07T05:07:59.631Z,51.56
2018-05-07T05:08:59.635Z,50.72
2018-05-07T05:09:59.639Z,50.55
2018-05-07T05:10:59.649Z,50.09
2018-05-07T05:11:59.648Z,48.83
2018-05-07T05:12:59.656Z,48.08
2018-05-07T05:13:59.666Z,47.42
2018-05-07T05:14:59.667Z,46.77
2018-05-07T05:15:59.673Z,46.28
2018-05-07T05:16:59.693Z,45.62
2018-05-07T05:17:59.684Z,44.75
2018-05-07T05:18:59.831Z,44.09
2018-05-07T05:19:59.696Z,43.24
2018-05-07T05:20:59.532Z,42.36
2018-05-07T05:21:59.712Z,42
2018-05-07T05:22:59.721Z,41.61
2018-05-07T05:23:59.732Z,41.22
2018-05-07T05:24:59.733Z,41.05
2018-05-07T05:25:59.488Z,40.88
2018-05-07T05:26:59.747Z,39.61
2018-05-07T05:27:59.760Z,39.72
2018-05-07T05:28:59.767Z,39.24
2018-05-07T05:29:59.851Z,39.04
2018-05-07T05:30:59.528Z,38.67
2018-05-07T05:31:59.794Z,38.57
2018-05-07T05:32:59.805Z,38.49
2018-05-07T05:33:59.806Z,37.43
2018-05-07T05:34:59.815Z,37.43
2018-05-07T05:35:59.824Z,37.45
2018-05-07T05:36:59.838Z,37.63
2018-05-07T05:37:59.850Z,37.35
2018-05-07T05:38:59.853Z,37.07
2018-05-07T05:39:59.864Z,36.88
2018-05-07T05:40:59.875Z,36.68
2018-05-07T05:41:59.889Z,36.02
2018-05-07T05:42:59.900Z,35.72
2018-05-07T05:43:59.906Z,35.16
2018-05-07T05:44:59.911Z,35.35
2018-05-07T05:45:59.666Z,35.45
2018-05-07T05:46:59.930Z,34.78
2018-05-07T05:47:59.938Z,34.41
2018-05-07T05:48:59.954Z,33.53
2018-05-07T05:49:59.717Z,33.45
2018-05-07T05:50:59.972Z,33.54
2018-05-07T05:51:59.983Z,33.05
2018-05-07T05:52:59.988Z,32.97
2018-05-07T05:54:00.001Z,32.19
2018-05-07T05:55:00.015Z,32.29
2018-05-07T05:56:00.029Z,32.3
2018-05-07T05:57:00.037Z,31.81
2018-05-07T05:58:00.060Z,32.01
2018-05-07T05:59:00.060Z,31.71
2018-05-07T06:00:00.074Z,31.7
2018-05-07T06:01:00.083Z,31.41
2018-05-07T06:02:00.092Z,31.52
2018-05-07T06:03:00.115Z,31.23
2018-05-07T06:04:00.300Z,31.23
2018-05-07T06:05:00.121Z,31.03
2018-05-07T06:06:00.134Z,30.35
2018-05-07T06:07:00.147Z,31.03
2018-05-07T06:07:59.913Z,30.26
2018-05-07T06:09:00.334Z,30.26
2018-05-07T06:10:00.179Z,29.77
2018-05-07T06:11:00.192Z,30.27
2018-05-07T06:12:00.206Z,29.98
2018-05-07T06:13:00.215Z,30.1
2018-05-07T06:14:00.226Z,29.7
2018-05-07T06:15:00.673Z,29.11
2018-05-07T06:15:59.997Z,29.6
2018-05-07T06:17:00.018Z,29.21
2018-05-07T06:18:00.276Z,29.5
2018-05-07T06:19:00.295Z,29.21
2018-05-07T06:20:00.299Z,28.93
2018-05-07T06:21:00.318Z,28.34
2018-05-07T06:22:00.329Z,28.06
2018-05-07T06:23:00.337Z,28.16
2018-05-07T06:24:00.356Z,27.87
2018-05-07T06:25:00.112Z,27.28
2018-05-07T06:26:00.123Z,26.51
2018-05-07T06:27:00.397Z,26.9
2018-05-07T06:28:00.407Z,26.7
2018-05-07T06:29:00.420Z,26.8
2018-05-07T06:30:00.435Z,26.61
2018-05-07T06:31:00.445Z,26.61
2018-05-07T06:32:00.204Z,26.31
2018-05-07T06:33:00.476Z,25.92
2018-05-07T06:34:00.491Z,26.32
2018-05-07T06:35:00.521Z,25.93
2018-05-07T06:36:00.266Z,25.83
2018-05-07T06:37:00.548Z,25.04
2018-05-07T06:38:00.569Z,25.15
2018-05-07T06:39:00.304Z,24.95
2018-05-07T06:40:00.571Z,24.66
2018-05-07T06:41:00.585Z,25.26
2018-05-07T06:42:00.604Z,24.48
2018-05-07T06:43:00.622Z,24.87
2018-05-07T06:44:00.633Z,24.4
2018-05-07T06:45:00.685Z,24.59
2018-05-07T06:46:00.841Z,24.49
2018-05-07T06:47:00.709Z,24.41
2018-05-07T06:48:00.690Z,23.52
2018-05-07T06:49:00.707Z,24.21
2018-05-07T06:50:00.731Z,23.72
2018-05-07T06:51:00.739Z,23.72
2018-05-07T06:52:00.841Z,24.01
2018-05-07T06:53:00.770Z,23.82
2018-05-07T06:54:00.782Z,23.52
2018-05-07T06:55:00.799Z,23.52
2018-05-07T06:56:00.817Z,23.03
2018-05-07T06:57:01.248Z,22.73
2018-05-07T06:58:00.851Z,22.74
2018-05-07T06:59:00.862Z,22.84
2018-05-07T07:00:00.879Z,22.35
2018-05-07T07:01:00.895Z,21.86
2018-05-07T07:02:00.667Z,22.25
2018-05-07T07:03:01.171Z,22.25
2018-05-07T07:04:00.941Z,22.25
2018-05-07T07:05:00.965Z,22.64
2018-05-07T07:06:00.973Z,22.15
2018-05-07T07:07:00.989Z,22.26
2018-05-07T07:08:01.181Z,22.46
2018-05-07T07:09:01.021Z,22.46
2018-05-07T07:10:01.039Z,22.75
2018-05-07T07:11:01.054Z,22.75
2018-05-07T07:12:00.821Z,22.47
2018-05-07T07:13:00.839Z,21.88
2018-05-07T07:14:01.102Z,21.89
2018-05-07T07:15:01.124Z,21.1
2018-05-07T07:16:01.136Z,20.81
2018-05-07T07:17:01.149Z,21.21
2018-05-07T07:18:01.176Z,20.53
2018-05-07T07:19:01.187Z,20.44
2018-05-07T07:20:01.203Z,20.64
2018-05-07T07:21:00.963Z,20.45
2018-05-07T07:22:01.234Z,19.76
2018-05-07T07:23:01.263Z,19.96
2018-05-07T07:24:01.273Z,19.37
2018-05-07T07:25:01.284Z,19.48
2018-05-07T07:26:01.312Z,18.88
2018-05-07T07:27:01.325Z,18.99
2018-05-07T07:28:01.470Z,18.88
2018-05-07T07:29:01.360Z,18.68
2018-05-07T07:30:01.118Z,18.68
2018-05-07T07:31:01.401Z,19.07
2018-05-07T07:32:01.403Z,18.98
2018-05-07T07:33:01.423Z,19.17
2018-05-07T07:34:01.711Z,18.97
2018-05-07T07:35:01.456Z,19.06
2018-05-07T07:36:01.221Z,19.26
2018-05-07T07:37:01.497Z,18.85
2018-05-07T07:38:01.510Z,19.05
2018-05-07T07:39:01.529Z,19.13
2018-05-07T07:40:01.543Z,19.13
2018-05-07T07:41:01.577Z,19.03
2018-05-07T07:42:01.583Z,19.21
2018-05-07T07:43:01.598Z,19.32
2018-05-07T07:44:01.619Z,19.7
2018-05-07T07:45:01.628Z,19.98
2018-05-07T07:46:01.651Z,20.27
2018-05-07T07:47:01.822Z,20.07
2018-05-07T07:48:01.434Z,20.75
2018-05-07T07:49:01.444Z,20.94
2018-05-07T07:50:01.713Z,21.23
2018-05-07T07:51:01.731Z,22.01
2018-05-07T07:52:01.752Z,22
2018-05-07T07:53:01.764Z,22.09
2018-05-07T07:54:01.789Z,22.47
2018-05-07T07:55:01.803Z,22.77
2018-05-07T07:56:01.817Z,22.66
2018-05-07T07:57:01.831Z,22.84
2018-05-07T07:58:01.846Z,23.03
2018-05-07T07:59:01.872Z,22.84
2018-05-07T08:00:01.881Z,23.23
2018-05-07T08:01:01.897Z,23.53
2018-05-07T08:02:01.932Z,23.43
2018-05-07T08:03:01.945Z,24.01
2018-05-07T08:04:01.953Z,24.01
2018-05-07T08:05:01.722Z,24.4
2018-05-07T08:06:01.983Z,24.2
2018-05-07T08:07:02.022Z,23.91
2018-05-07T08:08:02.009Z,23.92
2018-05-07T08:09:02.026Z,23.82
2018-05-07T08:10:02.048Z,23.93
2018-05-07T08:11:02.062Z,23.63
2018-05-07T08:12:02.156Z,24.04
2018-05-07T08:13:02.091Z,23.94
2018-05-07T08:14:02.104Z,24.14
2018-05-07T08:15:02.136Z,24.43
2018-05-07T08:16:01.889Z,23.45
2018-05-07T08:17:02.179Z,24.42
2018-05-07T08:18:02.171Z,24.32
2018-05-07T08:19:02.191Z,23.92
2018-05-07T08:20:02.198Z,24.9
2018-05-07T08:21:01.964Z,25.1
2018-05-07T08:22:02.232Z,24.79
2018-05-07T08:23:02.258Z,24.98
2018-05-07T08:24:02.272Z,25.46
2018-05-07T08:25:02.272Z,25.76
2018-05-07T08:26:02.291Z,25.76
2018-05-07T08:27:02.311Z,25.27
2018-05-07T08:28:02.319Z,25.35
2018-05-07T08:29:02.330Z,25.55
2018-05-07T08:30:02.349Z,27
2018-05-07T08:31:02.397Z,27.47
2018-05-07T08:32:02.411Z,28.14
2018-05-07T08:33:02.391Z,28.52
2018-05-07T08:34:02.402Z,29.28
2018-05-07T08:35:02.422Z,29.36
2018-05-07T08:36:02.430Z,29.56
2018-05-07T08:37:02.452Z,30.44
2018-05-07T08:38:02.468Z,30.13
2018-05-07T08:39:02.469Z,30.42
2018-05-07T08:40:02.483Z,30.99
2018-05-07T08:41:02.512Z,31.37
2018-05-07T08:42:02.503Z,32.21
2018-05-07T08:43:02.531Z,33.36
2018-05-07T08:45:02.552Z,34.98
2018-05-07T08:46:02.294Z,35.45
2018-05-07T08:47:02.567Z,35.05
2018-05-07T08:48:02.317Z,36.02
2018-05-07T08:49:02.579Z,36.38
2018-05-07T08:50:02.591Z,37.26
2018-05-07T08:51:02.670Z,37.24
2018-05-07T08:52:02.605Z,37.53
2018-05-07T08:53:02.846Z,37.32
2018-05-07T08:54:02.634Z,37.4
2018-05-07T08:55:02.624Z,38.07
2018-05-07T08:56:02.646Z,38.64
2018-05-07T08:57:02.636Z,39.12
2018-05-07T08:58:02.645Z,39.32
2018-05-07T08:59:02.659Z,38.71
2018-05-07T09:00:02.655Z,39.88
2018-05-07T09:01:02.685Z,40.25
2018-05-07T09:02:02.758Z,40.34
2018-05-07T09:03:02.666Z,40.71
2018-05-07T09:04:03.152Z,41.09
2018-05-07T09:05:02.678Z,40.98
2018-05-07T09:06:02.678Z,40.88
2018-05-07T09:07:02.688Z,40.98
2018-05-07T09:08:02.850Z,41.75
2018-05-07T09:09:02.693Z,41.93
2018-05-07T09:10:02.435Z,42.21
2018-05-07T09:11:02.690Z,42.58
2018-05-07T09:12:02.909Z,42.77
2018-05-07T09:13:02.703Z,42.97
2018-05-07T09:14:02.709Z,43.54
2018-05-07T09:15:02.717Z,43.84
2018-05-07T09:16:02.706Z,44.01
2018-05-07T09:17:02.705Z,44.7
2018-05-07T09:18:02.727Z,44.97
2018-05-07T09:19:02.743Z,45
2018-05-07T09:20:02.705Z,44.78
2018-05-07T09:21:02.706Z,44.51
2018-05-07T09:22:02.714Z,44.59
2018-05-07T09:23:02.707Z,44.78
2018-05-07T09:24:02.713Z,44.1
2018-05-07T09:25:02.709Z,44.29
2018-05-07T09:26:02.713Z,44.29
2018-05-07T09:27:02.537Z,44.68
2018-05-07T09:28:02.465Z,44.59
2018-05-07T09:29:02.787Z,43.24
2018-05-07T09:30:02.713Z,44.1
2018-05-07T09:31:04.597Z,44.78
2018-05-07T09:32:02.715Z,45.17
2018-05-07T09:33:02.715Z,45.45
2018-05-07T09:34:02.716Z,45.07
2018-05-07T09:35:02.739Z,45.17
2018-05-07T09:36:02.753Z,45.75
2018-05-07T09:37:02.872Z,45.65
2018-05-07T09:38:02.729Z,46.42
2018-05-07T09:39:02.726Z,46.61
2018-05-07T09:40:02.733Z,45.17
2018-05-07T09:41:02.728Z,45.07
2018-05-07T09:42:02.741Z,44.78
2018-05-07T09:43:02.848Z,45.26
2018-05-07T09:44:02.467Z,45.84
2018-05-07T09:45:02.742Z,46.13
2018-05-07T09:46:02.720Z,45.55
2018-05-07T09:47:02.721Z,44.68
2018-05-07T09:48:02.466Z,44.49
2018-05-07T09:49:02.895Z,45.17
2018-05-07T09:50:02.764Z,44.97
2018-05-07T09:51:02.470Z,45.28
2018-05-07T09:52:02.740Z,44.8
2018-05-07T09:53:02.725Z,44.87
2018-05-07T09:54:02.736Z,45.07
2018-05-07T09:55:02.747Z,44.1
2018-05-07T09:56:02.777Z,44.51
2018-05-07T09:57:02.850Z,44.68
2018-05-07T09:58:02.763Z,45.17
2018-05-07T09:59:02.724Z,45.07
2018-05-07T10:00:02.742Z,45.07
2018-05-07T10:01:02.733Z,45.36
2018-05-07T10:02:02.761Z,45.48
2018-05-07T10:03:02.744Z,45.67
2018-05-07T10:04:02.977Z,46.44
2018-05-07T10:05:02.727Z,45.84
2018-05-07T10:06:02.754Z,46.06
2018-05-07T10:07:02.757Z,46.34
2018-05-07T10:08:02.770Z,46.15
2018-05-07T10:09:02.535Z,46.25
2018-05-07T10:10:02.781Z,46.25
2018-05-07T10:11:02.797Z,45.96
2018-05-07T10:12:02.741Z,45.86
2018-05-07T10:13:02.729Z,45.67
2018-05-07T10:14:02.481Z,45.86
2018-05-07T10:15:02.728Z,46.06
2018-05-07T10:16:02.478Z,45.86
2018-05-07T10:17:02.845Z,45.38
2018-05-07T10:18:02.773Z,45.18
2018-05-07T10:19:02.727Z,45.48
2018-05-07T10:20:02.725Z,45.48
2018-05-07T10:21:02.729Z,45.76
2018-05-07T10:22:02.745Z,45.18
2018-05-07T10:23:02.728Z,44.8
2018-05-07T10:24:02.739Z,44.8
2018-05-07T10:25:02.731Z,44.42
2018-05-07T10:26:02.737Z,43.84
2018-05-07T10:27:02.751Z,44.12
2018-05-07T10:28:02.733Z,45
2018-05-07T10:29:02.475Z,45
2018-05-07T10:30:02.477Z,45.38
2018-05-07T10:31:02.729Z,45.36
2018-05-07T10:32:02.729Z,45.26
2018-05-07T10:33:02.745Z,46.13
2018-05-07T10:34:02.497Z,46.42
2018-05-07T10:35:02.732Z,45.75
2018-05-07T10:36:02.729Z,45.45
2018-05-07T10:37:02.730Z,45.18
2018-05-07T10:38:02.735Z,45.38
2018-05-07T10:39:02.746Z,44.9
2018-05-07T10:40:02.764Z,44.03
2018-05-07T10:41:02.733Z,43.84
2018-05-07T10:42:05.420Z,44.12
2018-05-07T10:43:02.731Z,44.03
2018-05-07T10:44:02.735Z,43.54
2018-05-07T10:47:02.749Z,44.12
2018-05-07T10:48:02.733Z,44.8
2018-05-07T10:49:02.794Z,45.57
2018-05-07T10:50:02.478Z,46.44
2018-05-07T10:51:02.734Z,45.86
2018-05-07T10:52:02.734Z,45.86
2018-05-07T10:53:02.744Z,44.6
2018-05-07T10:55:04.411Z,45
2018-05-07T10:56:02.781Z,44.6
2018-05-07T10:57:02.748Z,44.6
2018-05-07T10:58:02.735Z,44.51
2018-05-07T10:59:02.732Z,44.9
2018-05-07T11:00:02.739Z,44.9
2018-05-07T11:01:02.728Z,44.8
2018-05-07T11:02:02.734Z,44.42
2018-05-07T11:03:02.730Z,44.03
2018-05-07T11:04:02.741Z,43.74
2018-05-07T11:05:02.729Z,43.64
2018-05-07T11:06:02.737Z,43.45
2018-05-07T11:07:02.741Z,43.45
2018-05-07T11:08:02.736Z,44.22
2018-05-07T11:09:02.739Z,44.05
2018-05-07T11:10:02.732Z,44.22
2018-05-07T11:11:02.733Z,43.08
2018-05-07T11:12:02.737Z,43.74
2018-05-07T11:13:02.735Z,42.68
2018-05-07T11:14:02.479Z,42.6
2018-05-07T11:15:02.750Z,42.68
2018-05-07T11:16:02.479Z,42.1
2018-05-07T11:17:02.740Z,42.58
2018-05-07T11:18:02.953Z,42.77
2018-05-07T11:19:02.755Z,43.84
2018-05-07T11:20:02.483Z,43.74
2018-05-07T11:21:02.771Z,44.12
2018-05-07T11:22:02.734Z,44.6
2018-05-07T11:23:02.484Z,44.7
2018-05-07T11:24:02.753Z,45.18
2018-05-07T11:25:02.481Z,45.57
2018-05-07T11:26:02.765Z,45.86
2018-05-07T11:27:02.495Z,45.48
2018-05-07T11:28:02.741Z,45.67
2018-05-07T11:29:02.755Z,45.57
2018-05-07T11:30:02.766Z,45.48
2018-05-07T11:31:02.826Z,45.28
2018-05-07T11:32:02.523Z,45.38
2018-05-07T11:33:02.751Z,45.57
2018-05-07T11:34:02.756Z,45.86
2018-05-07T11:35:02.953Z,46.44
2018-05-07T11:36:02.764Z,46.34
2018-05-07T11:37:02.737Z,46.44
2018-05-07T11:38:02.739Z,46.34
2018-05-07T11:39:02.852Z,45.48
2018-05-07T11:40:02.738Z,45.18
2018-05-07T11:41:02.750Z,46.34
2018-05-07T11:42:02.484Z,46.64
2018-05-07T11:43:02.768Z,45.67
2018-05-07T11:44:02.788Z,45.57
2018-05-07T11:45:02.746Z,44.7
2018-05-07T11:46:02.746Z,44.9
2018-05-07T11:47:02.482Z,45.28
2018-05-07T11:48:02.753Z,45.38
2018-05-07T11:49:02.743Z,45.57
2018-05-07T11:50:02.738Z,45.96
2018-05-07T11:51:02.738Z,46.25
2018-05-07T11:52:02.487Z,45.69
2018-05-07T11:53:02.483Z,45.5
2018-05-07T11:54:02.738Z,45.5
2018-05-07T11:55:02.736Z,45.89
2018-05-07T11:56:02.740Z,45.89
2018-05-07T11:57:02.772Z,46.17
2018-05-07T11:58:02.736Z,45.98
2018-05-07T11:59:02.739Z,46.08
2018-05-07T12:00:02.737Z,45.5
2018-05-07T12:01:02.757Z,45.59
2018-05-07T12:02:02.766Z,45.5
2018-05-07T12:03:02.759Z,46.08
2018-05-07T12:04:02.751Z,46.37
2018-05-07T12:05:02.738Z,46.08
2018-05-07T12:06:02.738Z,46.37
2018-05-07T12:07:02.486Z,46.56
2018-05-07T12:08:02.816Z,46.56
2018-05-07T12:09:02.881Z,46.3
2018-05-07T12:10:02.739Z,46.39
2018-05-07T12:11:02.747Z,46.75
2018-05-07T12:12:02.768Z,46.56
2018-05-07T12:13:02.486Z,46.37
2018-05-07T12:14:02.762Z,46.68
2018-05-07T12:15:02.745Z,46.58
2018-05-07T12:16:02.837Z,45.79
2018-05-07T12:17:02.743Z,46.3
2018-05-07T12:18:02.740Z,46.66
2018-05-07T12:19:02.746Z,46.47
2018-05-07T12:20:02.758Z,46.66
2018-05-07T12:21:02.744Z,46.66
2018-05-07T12:22:02.746Z,46.95
2018-05-07T12:23:02.749Z,46.47
2018-05-07T12:24:02.758Z,46.58
2018-05-07T12:25:02.756Z,46.08
2018-05-07T12:26:02.945Z,46.47
2018-05-07T12:27:02.775Z,46.2
2018-05-07T12:28:02.750Z,45.81
2018-05-07T12:29:02.744Z,45.79
2018-05-07T12:30:02.746Z,45.79
2018-05-07T12:31:02.754Z,46.66
2018-05-07T12:32:02.746Z,46.17
2018-05-07T12:33:02.496Z,45.89
2018-05-07T12:34:02.494Z,45.4
2018-05-07T12:35:02.755Z,45.04
2018-05-07T12:36:02.770Z,44.94
2018-05-07T12:37:02.766Z,45.23
2018-05-07T12:38:02.761Z,45.4
2018-05-07T12:39:02.746Z,45.89
2018-05-07T12:40:02.756Z,46.58
2018-05-07T12:41:02.774Z,46.49
2018-05-07T12:42:02.750Z,45.91
2018-05-07T12:43:02.752Z,44.65
2018-05-07T12:44:02.748Z,44.46
2018-05-07T12:45:02.496Z,44.17
2018-05-07T12:46:02.499Z,43.78
2018-05-07T12:47:02.751Z,44.07
2018-05-07T12:48:02.759Z,44.56
2018-05-07T12:49:02.498Z,44.65
2018-05-07T12:50:02.754Z,44.65
2018-05-07T12:51:02.757Z,45.16
2018-05-07T12:52:02.752Z,45.25
2018-05-07T12:53:02.757Z,44.87
2018-05-07T12:54:02.756Z,45.45
2018-05-07T12:55:02.755Z,45.25
2018-05-07T12:56:02.508Z,45.64
2018-05-07T12:57:02.761Z,45.54
2018-05-07T12:58:02.760Z,44.77
2018-05-07T12:59:02.521Z,44.29